sensor_id;sensor_type;location;lat;lon;timestamp;pressure;altitude;pressure_sealevel;temperature;humidity
11268;BME280;72685;47.474;9.416;2024-03-02T00:01:07;94359.38;;;5.01;100.00
11268;BME280;72685;47.474;9.416;2024-03-02T00:03:32;94353.13;;;4.97;100.00
11268;BME280;72685;47.474;9.416;2024-03-02T00:05:58;94352.28;;;4.88;100.00
11268;BME280;72685;47.474;9.416;2024-03-02T00:08:25;94364.00;;;4.96;100.00
11268;BME280;72685;47.474;9.416;2024-03-02T00:10:51;94362.16;;;4.96;100.00
11268;BME280;72685;47.474;9.416;2024-03-02T00:13:20;94362.34;;;5.00;100.00
11268;BME280;72685;47.474;9.416;2024-03-02T00:15:53;94355.28;;;4.95;100.00
11268;BME280;72685;47.474;9.416;2024-03-02T00:18:23;94370.97;;;4.92;100.00
11268;BME280;72685;47.474;9.416;2024-03-02T00:20:52;94360.72;;;4.76;100.00
11268;BME280;72685;47.474;9.416;2024-03-02T00:23:18;94354.31;;;4.91;100.00
11268;BME280;72685;47.474;9.416;2024-03-02T00:25:49;94364.91;;;4.91;100.00
11268;BME280;72685;47.474;9.416;2024-03-02T00:33:19;94365.31;;;4.85;100.00
11268;BME280;72685;47.474;9.416;2024-03-02T00:35:45;94364.94;;;4.77;100.00
11268;BME280;72685;47.474;9.416;2024-03-02T00:38:11;94355.59;;;4.80;100.00
11268;BME280;72685;47.474;9.416;2024-03-02T00:40:37;94366.13;;;4.71;100.00
11268;BME280;72685;47.474;9.416;2024-03-02T00:43:03;94359.91;;;4.76;100.00
11268;BME280;72685;47.474;9.416;2024-03-02T00:45:28;94365.72;;;4.78;100.00
11268;BME280;72685;47.474;9.416;2024-03-02T00:47:54;94372.34;;;4.75;100.00
11268;BME280;72685;47.474;9.416;2024-03-02T00:50:20;94366.50;;;4.65;100.00
11268;BME280;72685;47.474;9.416;2024-03-02T00:52:46;94378.06;;;4.69;100.00
11268;BME280;72685;47.474;9.416;2024-03-02T00:55:14;94369.16;;;4.65;100.00
11268;BME280;72685;47.474;9.416;2024-03-02T00:57:39;94364.84;;;4.69;100.00
11268;BME280;72685;47.474;9.416;2024-03-02T01:00:05;94361.31;;;4.73;100.00
11268;BME280;72685;47.474;9.416;2024-03-02T01:02:35;94367.06;;;4.89;100.00
11268;BME280;72685;47.474;9.416;2024-03-02T01:05:00;94367.44;;;4.96;100.00
11268;BME280;72685;47.474;9.416;2024-03-02T01:07:26;94374.00;;;4.99;100.00
11268;BME280;72685;47.474;9.416;2024-03-02T01:09:51;94370.97;;;4.92;100.00
11268;BME280;72685;47.474;9.416;2024-03-02T01:12:16;94368.31;;;4.92;100.00
11268;BME280;72685;47.474;9.416;2024-03-02T01:14:42;94370.88;;;4.83;100.00
11268;BME280;72685;47.474;9.416;2024-03-02T01:17:07;94372.34;;;4.75;100.00
11268;BME280;72685;47.474;9.416;2024-03-02T01:19:33;94369.63;;;4.67;100.00
11268;BME280;72685;47.474;9.416;2024-03-02T01:21:58;94378.94;;;4.64;100.00
11268;BME280;72685;47.474;9.416;2024-03-02T01:24:24;94383.75;;;4.62;100.00
11268;BME280;72685;47.474;9.416;2024-03-02T01:26:49;94382.66;;;4.63;100.00
11268;BME280;72685;47.474;9.416;2024-03-02T01:29:15;94393.03;;;4.60;100.00
11268;BME280;72685;47.474;9.416;2024-03-02T01:31:40;94389.63;;;4.59;100.00
11268;BME280;72685;47.474;9.416;2024-03-02T01:34:08;94393.63;;;4.57;100.00
11268;BME280;72685;47.474;9.416;2024-03-02T01:36:33;94388.34;;;4.57;100.00
11268;BME280;72685;47.474;9.416;2024-03-02T01:38:58;94389.06;;;4.62;100.00
11268;BME280;72685;47.474;9.416;2024-03-02T01:41:24;94389.13;;;4.71;100.00
11268;BME280;72685;47.474;9.416;2024-03-02T01:43:49;94393.16;;;4.68;100.00
11268;BME280;72685;47.474;9.416;2024-03-02T01:46:15;94395.69;;;4.73;100.00
11268;BME280;72685;47.474;9.416;2024-03-02T01:48:40;94397.47;;;4.78;100.00
11268;BME280;72685;47.474;9.416;2024-03-02T01:51:06;94401.47;;;4.89;100.00
11268;BME280;72685;47.474;9.416;2024-03-02T01:53:32;94404.91;;;4.90;100.00
11268;BME280;72685;47.474;9.416;2024-03-02T01:55:57;94406.88;;;4.98;100.00
11268;BME280;72685;47.474;9.416;2024-03-02T01:58:23;94399.00;;;5.06;100.00
11268;BME280;72685;47.474;9.416;2024-03-02T02:00:48;94402.91;;;5.09;100.00
11268;BME280;72685;47.474;9.416;2024-03-02T02:03:14;94400.94;;;5.14;100.00
11268;BME280;72685;47.474;9.416;2024-03-02T02:05:41;94405.44;;;5.14;100.00
11268;BME280;72685;47.474;9.416;2024-03-02T02:08:07;94408.00;;;5.19;100.00
11268;BME280;72685;47.474;9.416;2024-03-02T02:10:32;94412.22;;;5.20;100.00
11268;BME280;72685;47.474;9.416;2024-03-02T02:12:58;94411.44;;;5.19;100.00
11268;BME280;72685;47.474;9.416;2024-03-02T02:15:29;94408.97;;;5.23;100.00
11268;BME280;72685;47.474;9.416;2024-03-02T02:17:56;94408.47;;;5.21;100.00
11268;BME280;72685;47.474;9.416;2024-03-02T02:20:22;94404.44;;;5.23;100.00
11268;BME280;72685;47.474;9.416;2024-03-02T02:25:20;94412.09;;;5.25;100.00
11268;BME280;72685;47.474;9.416;2024-03-02T02:27:46;94407.09;;;5.23;100.00
11268;BME280;72685;47.474;9.416;2024-03-02T02:30:11;94402.56;;;5.24;100.00
11268;BME280;72685;47.474;9.416;2024-03-02T02:32:37;94395.41;;;5.24;100.00
11268;BME280;72685;47.474;9.416;2024-03-02T02:35:02;94390.44;;;5.23;100.00
11268;BME280;72685;47.474;9.416;2024-03-02T02:37:28;94382.31;;;5.19;100.00
11268;BME280;72685;47.474;9.416;2024-03-02T02:39:54;94386.22;;;5.22;100.00
11268;BME280;72685;47.474;9.416;2024-03-02T02:42:19;94381.59;;;5.27;100.00
11268;BME280;72685;47.474;9.416;2024-03-02T02:44:44;94382.84;;;5.30;100.00
11268;BME280;72685;47.474;9.416;2024-03-02T02:47:10;94382.09;;;5.29;100.00
11268;BME280;72685;47.474;9.416;2024-03-02T02:49:35;94386.63;;;5.15;100.00
11268;BME280;72685;47.474;9.416;2024-03-02T02:52:00;94394.78;;;5.05;100.00
11268;BME280;72685;47.474;9.416;2024-03-02T02:54:26;94400.09;;;4.92;100.00
11268;BME280;72685;47.474;9.416;2024-03-02T02:56:51;94401.00;;;4.87;100.00
11268;BME280;72685;47.474;9.416;2024-03-02T02:59:16;94401.97;;;4.91;100.00
11268;BME280;72685;47.474;9.416;2024-03-02T03:01:42;94405.38;;;4.92;100.00
11268;BME280;72685;47.474;9.416;2024-03-02T03:04:07;94403.81;;;4.91;100.00
11268;BME280;72685;47.474;9.416;2024-03-02T03:06:32;94403.91;;;4.86;100.00
11268;BME280;72685;47.474;9.416;2024-03-02T03:08:58;94400.19;;;4.87;100.00
11268;BME280;72685;47.474;9.416;2024-03-02T03:11:23;94402.56;;;4.88;100.00
11268;BME280;72685;47.474;9.416;2024-03-02T03:13:50;94407.34;;;4.86;100.00
11268;BME280;72685;47.474;9.416;2024-03-02T03:16:15;94404.50;;;4.82;100.00
11268;BME280;72685;47.474;9.416;2024-03-02T03:18:41;94406.28;;;4.73;100.00
11268;BME280;72685;47.474;9.416;2024-03-02T03:21:06;94401.47;;;4.75;100.00
11268;BME280;72685;47.474;9.416;2024-03-02T03:23:32;94405.88;;;4.80;100.00
11268;BME280;72685;47.474;9.416;2024-03-02T03:25:57;94404.53;;;4.69;100.00
11268;BME280;72685;47.474;9.416;2024-03-02T03:28:22;94407.66;;;4.71;100.00
11268;BME280;72685;47.474;9.416;2024-03-02T03:30:48;94406.19;;;4.65;100.00
11268;BME280;72685;47.474;9.416;2024-03-02T03:33:13;94412.06;;;4.62;100.00
11268;BME280;72685;47.474;9.416;2024-03-02T03:35:39;94415.31;;;4.59;100.00
11268;BME280;72685;47.474;9.416;2024-03-02T03:38:04;94410.41;;;4.52;100.00
11268;BME280;72685;47.474;9.416;2024-03-02T03:40:29;94415.56;;;4.44;100.00
11268;BME280;72685;47.474;9.416;2024-03-02T03:42:55;94416.75;;;4.38;100.00
11268;BME280;72685;47.474;9.416;2024-03-02T03:45:21;94421.53;;;4.36;100.00
11268;BME280;72685;47.474;9.416;2024-03-02T03:47:47;94421.34;;;4.32;100.00
11268;BME280;72685;47.474;9.416;2024-03-02T03:50:12;94421.25;;;4.23;100.00
11268;BME280;72685;47.474;9.416;2024-03-02T03:52:38;94422.69;;;4.16;100.00
11268;BME280;72685;47.474;9.416;2024-03-02T03:55:04;94421.72;;;4.25;100.00
11268;BME280;72685;47.474;9.416;2024-03-02T03:57:30;94425.06;;;4.17;100.00
11268;BME280;72685;47.474;9.416;2024-03-02T03:59:55;94417.19;;;4.12;100.00
11268;BME280;72685;47.474;9.416;2024-03-02T04:02:21;94415.91;;;4.10;100.00
11268;BME280;72685;47.474;9.416;2024-03-02T04:04:46;94418.06;;;4.08;100.00
11268;BME280;72685;47.474;9.416;2024-03-02T04:07:12;94411.84;;;4.17;100.00
11268;BME280;72685;47.474;9.416;2024-03-02T04:09:37;94410.16;;;4.21;100.00
11268;BME280;72685;47.474;9.416;2024-03-02T04:12:03;94406.75;;;4.21;100.00
11268;BME280;72685;47.474;9.416;2024-03-02T04:14:28;94400.00;;;4.28;100.00
11268;BME280;72685;47.474;9.416;2024-03-02T04:16:54;94406.75;;;4.35;100.00
11268;BME280;72685;47.474;9.416;2024-03-02T04:19:19;94405.38;;;4.37;100.00
11268;BME280;72685;47.474;9.416;2024-03-02T04:21:44;94405.56;;;4.41;100.00
11268;BME280;72685;47.474;9.416;2024-03-02T04:24:10;94402.44;;;4.39;100.00
11268;BME280;72685;47.474;9.416;2024-03-02T04:26:35;94405.56;;;4.41;100.00
11268;BME280;72685;47.474;9.416;2024-03-02T04:29:01;94397.25;;;4.47;100.00
11268;BME280;72685;47.474;9.416;2024-03-02T04:31:27;94400.88;;;4.51;100.00
11268;BME280;72685;47.474;9.416;2024-03-02T04:33:52;94400.03;;;4.56;100.00
11268;BME280;72685;47.474;9.416;2024-03-02T04:36:18;94397.25;;;4.61;100.00
11268;BME280;72685;47.474;9.416;2024-03-02T04:38:44;94386.41;;;4.62;100.00
11268;BME280;72685;47.474;9.416;2024-03-02T04:41:09;94395.69;;;4.60;100.00
11268;BME280;72685;47.474;9.416;2024-03-02T04:43:34;94385.09;;;4.60;100.00
11268;BME280;72685;47.474;9.416;2024-03-02T04:46:00;94393.16;;;4.55;100.00
11268;BME280;72685;47.474;9.416;2024-03-02T04:48:26;94384.53;;;4.49;100.00
11268;BME280;72685;47.474;9.416;2024-03-02T04:50:51;94402.16;;;4.54;100.00
11268;BME280;72685;47.474;9.416;2024-03-02T04:53:17;94398.63;;;4.45;100.00
11268;BME280;72685;47.474;9.416;2024-03-02T04:55:43;94405.69;;;4.36;100.00
11268;BME280;72685;47.474;9.416;2024-03-02T04:58:08;94405.00;;;4.30;100.00
11268;BME280;72685;47.474;9.416;2024-03-02T05:00:34;94407.63;;;4.30;100.00
11268;BME280;72685;47.474;9.416;2024-03-02T05:03:00;94409.69;;;4.33;100.00
11268;BME280;72685;47.474;9.416;2024-03-02T05:05:25;94418.69;;;4.32;100.00
11268;BME280;72685;47.474;9.416;2024-03-02T05:07:51;94418.13;;;4.35;100.00
11268;BME280;72685;47.474;9.416;2024-03-02T05:10:17;94412.41;;;4.28;100.00
11268;BME280;72685;47.474;9.416;2024-03-02T05:12:42;94415.44;;;4.21;100.00
11268;BME280;72685;47.474;9.416;2024-03-02T05:15:12;94416.03;;;4.18;100.00
11268;BME280;72685;47.474;9.416;2024-03-02T05:17:38;94415.44;;;4.21;100.00
11268;BME280;72685;47.474;9.416;2024-03-02T05:20:05;94417.44;;;4.30;100.00
11268;BME280;72685;47.474;9.416;2024-03-02T05:22:31;94420.16;;;4.24;100.00
11268;BME280;72685;47.474;9.416;2024-03-02T05:24:56;94423.31;;;4.26;100.00
11268;BME280;72685;47.474;9.416;2024-03-02T05:27:22;94415.94;;;4.23;100.00
11268;BME280;72685;47.474;9.416;2024-03-02T05:29:47;94421.31;;;4.18;100.00
11268;BME280;72685;47.474;9.416;2024-03-02T05:32:12;94417.91;;;4.18;100.00
11268;BME280;72685;47.474;9.416;2024-03-02T05:34:38;94419.84;;;4.12;100.00
11268;BME280;72685;47.474;9.416;2024-03-02T05:37:03;94424.25;;;4.17;100.00
11268;BME280;72685;47.474;9.416;2024-03-02T05:39:28;94428.47;;;4.18;100.00
11268;BME280;72685;47.474;9.416;2024-03-02T05:41:54;94425.09;;;3.99;100.00
11268;BME280;72685;47.474;9.416;2024-03-02T05:44:19;94420.63;;;4.13;100.00
11268;BME280;72685;47.474;9.416;2024-03-02T05:46:45;94420.56;;;4.18;100.00
11268;BME280;72685;47.474;9.416;2024-03-02T05:49:10;94414.38;;;4.22;100.00
11268;BME280;72685;47.474;9.416;2024-03-02T05:51:36;94422.22;;;4.28;100.00
11268;BME280;72685;47.474;9.416;2024-03-02T05:54:02;94419.28;;;4.29;100.00
11268;BME280;72685;47.474;9.416;2024-03-02T05:56:28;94424.00;;;4.32;100.00
11268;BME280;72685;47.474;9.416;2024-03-02T05:58:53;94424.09;;;4.27;100.00
11268;BME280;72685;47.474;9.416;2024-03-02T06:01:47;94434.34;;;4.28;100.00
11268;BME280;72685;47.474;9.416;2024-03-02T06:04:14;94433.28;;;4.30;100.00
11268;BME280;72685;47.474;9.416;2024-03-02T06:06:40;94430.34;;;4.31;100.00
11268;BME280;72685;47.474;9.416;2024-03-02T06:09:06;94430.34;;;4.31;100.00
11268;BME280;72685;47.474;9.416;2024-03-02T06:11:39;94430.72;;;4.24;100.00
11268;BME280;72685;47.474;9.416;2024-03-02T06:14:05;94419.97;;;4.21;100.00
11268;BME280;72685;47.474;9.416;2024-03-02T06:16:31;94428.38;;;4.23;100.00
11268;BME280;72685;47.474;9.416;2024-03-02T06:18:57;94427.28;;;4.10;100.00
11268;BME280;72685;47.474;9.416;2024-03-02T06:21:26;94426.38;;;4.01;100.00
11268;BME280;72685;47.474;9.416;2024-03-02T06:23:52;94434.47;;;3.91;100.00
11268;BME280;72685;47.474;9.416;2024-03-02T06:26:18;94435.75;;;3.94;100.00
11268;BME280;72685;47.474;9.416;2024-03-02T06:28:44;94428.97;;;3.88;100.00
11268;BME280;72685;47.474;9.416;2024-03-02T06:31:09;94431.81;;;3.91;100.00
11268;BME280;72685;47.474;9.416;2024-03-02T06:33:35;94439.06;;;3.86;100.00
11268;BME280;72685;47.474;9.416;2024-03-02T06:36:01;94434.72;;;3.76;100.00
11268;BME280;72685;47.474;9.416;2024-03-02T06:38:26;94442.84;;;3.61;100.00
11268;BME280;72685;47.474;9.416;2024-03-02T06:40:52;94441.09;;;3.56;100.00
11268;BME280;72685;47.474;9.416;2024-03-02T06:43:17;94437.94;;;3.73;100.00
11268;BME280;72685;47.474;9.416;2024-03-02T06:45:43;94438.41;;;3.75;100.00
11268;BME280;72685;47.474;9.416;2024-03-02T06:48:08;94443.66;;;3.94;100.00
11268;BME280;72685;47.474;9.416;2024-03-02T06:50:33;94436.84;;;4.06;100.00
11268;BME280;72685;47.474;9.416;2024-03-02T06:52:59;94434.72;;;4.08;100.00
11268;BME280;72685;47.474;9.416;2024-03-02T06:55:24;94436.94;;;4.01;100.00
11268;BME280;72685;47.474;9.416;2024-03-02T06:57:50;94436.53;;;3.94;100.00
11268;BME280;72685;47.474;9.416;2024-03-02T07:00:16;94431.25;;;3.94;100.00
11268;BME280;72685;47.474;9.416;2024-03-02T07:02:46;94429.72;;;4.07;100.00
11268;BME280;72685;47.474;9.416;2024-03-02T07:05:11;94433.19;;;4.21;100.00
11268;BME280;72685;47.474;9.416;2024-03-02T07:07:37;94432.28;;;4.25;100.00
11268;BME280;72685;47.474;9.416;2024-03-02T07:10:06;94436.00;;;4.24;100.00
11268;BME280;72685;47.474;9.416;2024-03-02T07:12:32;94441.91;;;4.35;100.00
11268;BME280;72685;47.474;9.416;2024-03-02T07:14:58;94433.81;;;4.45;100.00
11268;BME280;72685;47.474;9.416;2024-03-02T07:17:30;94429.50;;;4.49;100.00
11268;BME280;72685;47.474;9.416;2024-03-02T07:19:56;94446.91;;;4.50;100.00
11268;BME280;72685;47.474;9.416;2024-03-02T07:22:22;94441.34;;;4.52;100.00
11268;BME280;72685;47.474;9.416;2024-03-02T07:24:48;94445.19;;;4.59;100.00
11268;BME280;72685;47.474;9.416;2024-03-02T07:27:14;94440.88;;;4.63;100.00
11268;BME280;72685;47.474;9.416;2024-03-02T07:29:40;94445.94;;;4.60;100.00
11268;BME280;72685;47.474;9.416;2024-03-02T07:32:07;94446.84;;;4.55;100.00
11268;BME280;72685;47.474;9.416;2024-03-02T07:34:32;94445.28;;;4.54;100.00
11268;BME280;72685;47.474;9.416;2024-03-02T07:36:57;94453.88;;;4.60;100.00
11268;BME280;72685;47.474;9.416;2024-03-02T07:39:23;94453.88;;;4.33;100.00
11268;BME280;72685;47.474;9.416;2024-03-02T07:41:49;94454.25;;;4.26;100.00
11268;BME280;72685;47.474;9.416;2024-03-02T07:44:14;94444.56;;;4.35;100.00
11268;BME280;72685;47.474;9.416;2024-03-02T07:46:43;94438.22;;;4.50;100.00
11268;BME280;72685;47.474;9.416;2024-03-02T07:49:09;94445.84;;;4.51;100.00
11268;BME280;72685;47.474;9.416;2024-03-02T07:51:35;94444.09;;;4.60;100.00
11268;BME280;72685;47.474;9.416;2024-03-02T07:54:00;94444.03;;;4.65;100.00
11268;BME280;72685;47.474;9.416;2024-03-02T07:56:26;94439.78;;;4.51;100.00
11268;BME280;72685;47.474;9.416;2024-03-02T07:58:51;94438.50;;;4.48;100.00
11268;BME280;72685;47.474;9.416;2024-03-02T08:01:17;94439.56;;;4.34;100.00
11268;BME280;72685;47.474;9.416;2024-03-02T08:03:43;94443.44;;;4.22;100.00
11268;BME280;72685;47.474;9.416;2024-03-02T08:06:13;94438.75;;;4.19;100.00
11268;BME280;72685;47.474;9.416;2024-03-02T08:08:40;94433.63;;;4.09;100.00
11268;BME280;72685;47.474;9.416;2024-03-02T08:11:06;94431.81;;;4.23;100.00
11268;BME280;72685;47.474;9.416;2024-03-02T08:13:31;94433.50;;;4.33;100.00
11268;BME280;72685;47.474;9.416;2024-03-02T08:15:56;94423.69;;;4.47;100.00
11268;BME280;72685;47.474;9.416;2024-03-02T08:18:22;94426.09;;;4.62;100.00
11268;BME280;72685;47.474;9.416;2024-03-02T08:20:47;94422.44;;;4.99;100.00
11268;BME280;72685;47.474;9.416;2024-03-02T08:23:13;94418.56;;;5.32;100.00
11268;BME280;72685;47.474;9.416;2024-03-02T08:25:38;94409.56;;;5.56;100.00
11268;BME280;72685;47.474;9.416;2024-03-02T08:28:03;94408.09;;;5.85;100.00
11268;BME280;72685;47.474;9.416;2024-03-02T08:30:30;94405.47;;;6.16;100.00
11268;BME280;72685;47.474;9.416;2024-03-02T08:32:55;94409.59;;;6.53;100.00
11268;BME280;72685;47.474;9.416;2024-03-02T08:35:20;94407.16;;;6.74;100.00
11268;BME280;72685;47.474;9.416;2024-03-02T08:37:47;94399.84;;;6.79;100.00
11268;BME280;72685;47.474;9.416;2024-03-02T08:40:13;94396.34;;;7.18;100.00
11268;BME280;72685;47.474;9.416;2024-03-02T08:42:38;94400.09;;;7.34;100.00
11268;BME280;72685;47.474;9.416;2024-03-02T08:45:04;94394.50;;;7.44;100.00
11268;BME280;72685;47.474;9.416;2024-03-02T08:47:29;94392.13;;;7.26;100.00
11268;BME280;72685;47.474;9.416;2024-03-02T08:49:55;94393.38;;;7.20;100.00
11268;BME280;72685;47.474;9.416;2024-03-02T08:52:20;94386.34;;;7.32;100.00
11268;BME280;72685;47.474;9.416;2024-03-02T08:54:45;94387.91;;;7.08;100.00
11268;BME280;72685;47.474;9.416;2024-03-02T08:57:11;94393.06;;;7.21;100.00
11268;BME280;72685;47.474;9.416;2024-03-02T08:59:36;94390.50;;;6.99;100.00
11268;BME280;72685;47.474;9.416;2024-03-02T09:02:02;94386.16;;;7.03;100.00
11268;BME280;72685;47.474;9.416;2024-03-02T09:04:27;94385.41;;;7.28;100.00
11268;BME280;72685;47.474;9.416;2024-03-02T09:06:53;94378.88;;;7.52;100.00
11268;BME280;72685;47.474;9.416;2024-03-02T09:09:18;94378.56;;;7.36;100.00
11268;BME280;72685;47.474;9.416;2024-03-02T09:11:46;94369.94;;;7.13;100.00
11268;BME280;72685;47.474;9.416;2024-03-02T09:14:11;94366.19;;;7.23;100.00
11268;BME280;72685;47.474;9.416;2024-03-02T09:16:37;94366.66;;;7.25;100.00
11268;BME280;72685;47.474;9.416;2024-03-02T09:19:03;94364.78;;;7.25;100.00
11268;BME280;72685;47.474;9.416;2024-03-02T09:21:28;94369.16;;;7.30;100.00
11268;BME280;72685;47.474;9.416;2024-03-02T09:23:55;94372.75;;;7.34;100.00
11268;BME280;72685;47.474;9.416;2024-03-02T09:26:21;94362.88;;;7.94;100.00
11268;BME280;72685;47.474;9.416;2024-03-02T09:28:47;94350.06;;;7.88;100.00
11268;BME280;72685;47.474;9.416;2024-03-02T09:31:13;94349.00;;;7.72;100.00
11268;BME280;72685;47.474;9.416;2024-03-02T09:33:38;94351.97;;;7.70;100.00
11268;BME280;72685;47.474;9.416;2024-03-02T09:36:16;94344.13;;;7.91;100.00
11268;BME280;72685;47.474;9.416;2024-03-02T09:38:42;94341.78;;;7.72;100.00
11268;BME280;72685;47.474;9.416;2024-03-02T09:41:08;94346.81;;;7.39;100.00
11268;BME280;72685;47.474;9.416;2024-03-02T09:43:33;94334.25;;;9.88;100.00
11268;BME280;72685;47.474;9.416;2024-03-02T09:45:59;94335.16;;;8.04;100.00
11268;BME280;72685;47.474;9.416;2024-03-02T09:48:24;94333.81;;;7.64;100.00
11268;BME280;72685;47.474;9.416;2024-03-02T09:50:50;94329.44;;;7.68;100.00
11268;BME280;72685;47.474;9.416;2024-03-02T09:53:15;94328.53;;;7.55;100.00
11268;BME280;72685;47.474;9.416;2024-03-02T09:55:46;94319.44;;;7.73;100.00
11268;BME280;72685;47.474;9.416;2024-03-02T09:58:11;94318.03;;;7.50;100.00
11268;BME280;72685;47.474;9.416;2024-03-02T10:00:37;94316.09;;;7.93;100.00
11268;BME280;72685;47.474;9.416;2024-03-02T10:03:03;94319.69;;;7.89;100.00
11268;BME280;72685;47.474;9.416;2024-03-02T10:05:30;94313.25;;;8.54;100.00
11268;BME280;72685;47.474;9.416;2024-03-02T10:08:02;94302.16;;;9.22;100.00
11268;BME280;72685;47.474;9.416;2024-03-02T10:10:41;94299.06;;;9.74;97.62
11268;BME280;72685;47.474;9.416;2024-03-02T10:13:09;94292.25;;;9.97;95.15
11268;BME280;72685;47.474;9.416;2024-03-02T10:15:35;94292.34;;;10.33;93.53
11268;BME280;72685;47.474;9.416;2024-03-02T10:18:05;94283.53;;;9.76;95.31
11268;BME280;72685;47.474;9.416;2024-03-02T10:20:33;94280.59;;;9.36;98.23
11268;BME280;72685;47.474;9.416;2024-03-02T10:23:15;94278.19;;;9.01;100.00
11268;BME280;72685;47.474;9.416;2024-03-02T10:25:42;94290.38;;;8.61;100.00
11268;BME280;72685;47.474;9.416;2024-03-02T10:28:07;94288.44;;;8.70;100.00
11268;BME280;72685;47.474;9.416;2024-03-02T10:30:33;94288.78;;;8.31;100.00
11268;BME280;72685;47.474;9.416;2024-03-02T10:33:00;94286.38;;;8.00;100.00
11268;BME280;72685;47.474;9.416;2024-03-02T10:35:26;94281.03;;;8.00;100.00
11268;BME280;72685;47.474;9.416;2024-03-02T10:37:55;94272.69;;;8.57;100.00
11268;BME280;72685;47.474;9.416;2024-03-02T10:40:23;94272.69;;;8.57;100.00
11268;BME280;72685;47.474;9.416;2024-03-02T10:42:50;94264.69;;;8.19;100.00
11268;BME280;72685;47.474;9.416;2024-03-02T10:45:16;94259.72;;;8.46;100.00
11268;BME280;72685;47.474;9.416;2024-03-02T10:47:46;94259.69;;;8.55;100.00
11268;BME280;72685;47.474;9.416;2024-03-02T10:50:12;94255.81;;;8.73;100.00
11268;BME280;72685;47.474;9.416;2024-03-02T10:52:38;94253.66;;;8.67;100.00
11268;BME280;72685;47.474;9.416;2024-03-02T10:55:05;94249.84;;;8.76;100.00
11268;BME280;72685;47.474;9.416;2024-03-02T10:57:52;94247.19;;;8.47;100.00
11268;BME280;72685;47.474;9.416;2024-03-02T11:00:19;94250.97;;;8.46;100.00
11268;BME280;72685;47.474;9.416;2024-03-02T11:02:51;94255.56;;;7.90;100.00
11268;BME280;72685;47.474;9.416;2024-03-02T11:05:26;94242.97;;;8.08;100.00
11268;BME280;72685;47.474;9.416;2024-03-02T11:07:57;94241.69;;;8.14;100.00
11268;BME280;72685;47.474;9.416;2024-03-02T11:10:25;94240.03;;;8.01;100.00
11268;BME280;72685;47.474;9.416;2024-03-02T11:12:56;94234.84;;;8.13;100.00
11268;BME280;72685;47.474;9.416;2024-03-02T11:15:27;94234.91;;;7.96;100.00
11268;BME280;72685;47.474;9.416;2024-03-02T11:17:53;94231.38;;;7.75;100.00
11268;BME280;72685;47.474;9.416;2024-03-02T11:20:19;94230.31;;;8.05;100.00
11268;BME280;72685;47.474;9.416;2024-03-02T11:22:45;94228.63;;;8.01;100.00
11268;BME280;72685;47.474;9.416;2024-03-02T11:25:25;94222.03;;;8.07;100.00
11268;BME280;72685;47.474;9.416;2024-03-02T11:33:03;94218.91;;;8.63;100.00
11268;BME280;72685;47.474;9.416;2024-03-02T11:35:42;94214.34;;;8.43;100.00
11268;BME280;72685;47.474;9.416;2024-03-02T11:38:08;94212.66;;;8.38;100.00
11268;BME280;72685;47.474;9.416;2024-03-02T11:40:34;94198.94;;;8.28;100.00
11268;BME280;72685;47.474;9.416;2024-03-02T11:43:00;94196.19;;;8.45;100.00
11268;BME280;72685;47.474;9.416;2024-03-02T11:45:26;94189.84;;;8.20;100.00
11268;BME280;72685;47.474;9.416;2024-03-02T11:47:57;94194.34;;;8.37;100.00
11268;BME280;72685;47.474;9.416;2024-03-02T11:52:55;94190.56;;;8.67;100.00
11268;BME280;72685;47.474;9.416;2024-03-02T11:55:21;94186.13;;;8.50;100.00
11268;BME280;72685;47.474;9.416;2024-03-02T11:57:48;94185.75;;;8.61;100.00
11268;BME280;72685;47.474;9.416;2024-03-02T12:00:18;94177.16;;;8.76;100.00
11268;BME280;72685;47.474;9.416;2024-03-02T12:02:44;94174.03;;;8.94;100.00
11268;BME280;72685;47.474;9.416;2024-03-02T12:05:15;94169.88;;;8.85;100.00
11268;BME280;72685;47.474;9.416;2024-03-02T12:07:42;94166.84;;;9.07;100.00
11268;BME280;72685;47.474;9.416;2024-03-02T12:10:08;94162.31;;;9.08;100.00
11268;BME280;72685;47.474;9.416;2024-03-02T12:12:33;94161.22;;;9.09;100.00
11268;BME280;72685;47.474;9.416;2024-03-02T12:14:59;94160.84;;;8.98;100.00
11268;BME280;72685;47.474;9.416;2024-03-02T12:17:25;94152.22;;;9.13;100.00
11268;BME280;72685;47.474;9.416;2024-03-02T12:19:51;94146.84;;;9.34;99.53
11268;BME280;72685;47.474;9.416;2024-03-02T12:22:16;94144.03;;;9.18;98.50
11268;BME280;72685;47.474;9.416;2024-03-02T12:24:42;94138.22;;;9.04;99.14
11268;BME280;72685;47.474;9.416;2024-03-02T12:27:11;94142.72;;;9.24;98.41
11268;BME280;72685;47.474;9.416;2024-03-02T12:29:38;94138.75;;;9.42;99.06
11268;BME280;72685;47.474;9.416;2024-03-02T12:32:05;94125.69;;;9.62;97.13
11268;BME280;72685;47.474;9.416;2024-03-02T12:34:30;94101.44;;;15.34;81.08
11268;BME280;72685;47.474;9.416;2024-03-02T12:36:56;94088.88;;;15.89;69.80
11268;BME280;72685;47.474;9.416;2024-03-02T12:39:21;94086.13;;;15.05;70.96
11268;BME280;72685;47.474;9.416;2024-03-02T12:41:50;94086.38;;;15.67;72.92
11268;BME280;72685;47.474;9.416;2024-03-02T12:44:17;94076.03;;;16.20;66.70
11268;BME280;72685;47.474;9.416;2024-03-02T12:46:43;94074.75;;;16.58;62.68
11268;BME280;72685;47.474;9.416;2024-03-02T12:49:13;94072.75;;;17.30;62.77
11268;BME280;72685;47.474;9.416;2024-03-02T12:51:40;94064.63;;;17.16;60.37
11268;BME280;72685;47.474;9.416;2024-03-02T12:54:11;94064.16;;;16.97;61.21
11268;BME280;72685;47.474;9.416;2024-03-02T12:56:37;94063.53;;;17.42;58.40
11268;BME280;72685;47.474;9.416;2024-03-02T12:59:03;94056.94;;;17.25;59.63
11268;BME280;72685;47.474;9.416;2024-03-02T13:01:29;94058.16;;;17.56;57.80
11268;BME280;72685;47.474;9.416;2024-03-02T13:03:55;94046.44;;;17.03;59.69
11268;BME280;72685;47.474;9.416;2024-03-02T13:06:21;94046.44;;;16.27;59.83
11268;BME280;72685;47.474;9.416;2024-03-02T13:08:47;94047.56;;;16.87;60.54
11268;BME280;72685;47.474;9.416;2024-03-02T13:11:13;94033.91;;;16.59;59.61